sensor_id;sensor_type;location;lat;lon;timestamp;P1;durP1;ratioP1;P2;durP2;ratioP2
69523;SDS011;56723;42.694;23.286;2023-02-28T00:01:13;27.97;;;17.30;;
69523;SDS011;56723;42.694;23.286;2023-02-28T00:03:40;31.07;;;19.13;;
69523;SDS011;56723;42.694;23.286;2023-02-28T00:06:08;28.40;;;17.47;;
69523;SDS011;56723;42.694;23.286;2023-02-28T00:08:38;26.97;;;18.47;;
69523;SDS011;56723;42.694;23.286;2023-02-28T00:11:07;31.67;;;17.77;;
69523;SDS011;56723;42.694;23.286;2023-02-28T00:13:36;27.53;;;17.77;;
69523;SDS011;56723;42.694;23.286;2023-02-28T00:16:06;28.67;;;19.47;;
69523;SDS011;56723;42.694;23.286;2023-02-28T00:18:35;26.53;;;16.43;;
69523;SDS011;56723;42.694;23.286;2023-02-28T00:21:03;33.93;;;18.53;;
69523;SDS011;56723;42.694;23.286;2023-02-28T02:36:46;75.00;;;31.27;;
69523;SDS011;56723;42.694;23.286;2023-02-28T02:42:24;76.07;;;31.77;;
69523;SDS011;56723;42.694;23.286;2023-02-28T02:45:01;65.00;;;28.63;;
69523;SDS011;56723;42.694;23.286;2023-02-28T02:47:32;65.47;;;28.80;;
69523;SDS011;56723;42.694;23.286;2023-02-28T02:50:03;57.35;;;27.60;;
69523;SDS011;56723;42.694;23.286;2023-02-28T02:52:38;63.93;;;28.77;;
69523;SDS011;56723;42.694;23.286;2023-02-28T06:25:44;88.57;;;37.43;;
69523;SDS011;56723;42.694;23.286;2023-02-28T06:28:12;92.28;;;41.45;;
69523;SDS011;56723;42.694;23.286;2023-02-28T06:30:38;89.80;;;42.80;;
69523;SDS011;56723;42.694;23.286;2023-02-28T06:33:05;85.30;;;38.37;;
69523;SDS011;56723;42.694;23.286;2023-02-28T06:35:32;86.40;;;40.37;;
69523;SDS011;56723;42.694;23.286;2023-02-28T06:37:59;90.40;;;40.83;;
69523;SDS011;56723;42.694;23.286;2023-02-28T06:40:26;65.23;;;31.13;;
69523;SDS011;56723;42.694;23.286;2023-02-28T06:42:53;63.17;;;31.83;;
69523;SDS011;56723;42.694;23.286;2023-02-28T06:45:20;69.00;;;32.50;;
69523;SDS011;56723;42.694;23.286;2023-02-28T06:47:47;75.10;;;33.97;;
69523;SDS011;56723;42.694;23.286;2023-02-28T06:50:18;75.30;;;36.00;;
69523;SDS011;56723;42.694;23.286;2023-02-28T06:52:46;67.67;;;31.77;;
69523;SDS011;56723;42.694;23.286;2023-02-28T06:55:13;72.40;;;35.63;;
69523;SDS011;56723;42.694;23.286;2023-02-28T08:03:10;62.10;;;30.63;;
69523;SDS011;56723;42.694;23.286;2023-02-28T08:05:39;60.60;;;32.00;;
69523;SDS011;56723;42.694;23.286;2023-02-28T08:08:07;62.30;;;30.57;;
69523;SDS011;56723;42.694;23.286;2023-02-28T08:10:34;54.13;;;29.70;;
69523;SDS011;56723;42.694;23.286;2023-02-28T08:13:01;59.70;;;31.03;;
69523;SDS011;56723;42.694;23.286;2023-02-28T08:15:28;49.40;;;29.80;;
69523;SDS011;56723;42.694;23.286;2023-02-28T08:17:55;63.77;;;33.50;;
69523;SDS011;56723;42.694;23.286;2023-02-28T08:20:23;59.53;;;32.07;;
69523;SDS011;56723;42.694;23.286;2023-02-28T08:22:51;61.70;;;32.75;;
69523;SDS011;56723;42.694;23.286;2023-02-28T08:25:18;59.53;;;33.03;;
69523;SDS011;56723;42.694;23.286;2023-02-28T08:27:45;54.20;;;28.50;;
69523;SDS011;56723;42.694;23.286;2023-02-28T08:30:13;60.50;;;32.50;;
69523;SDS011;56723;42.694;23.286;2023-02-28T08:32:40;62.05;;;33.15;;
69523;SDS011;56723;42.694;23.286;2023-02-28T08:35:08;58.33;;;33.47;;
69523;SDS011;56723;42.694;23.286;2023-02-28T08:37:38;54.83;;;31.10;;
69523;SDS011;56723;42.694;23.286;2023-02-28T08:40:05;59.27;;;30.00;;
69523;SDS011;56723;42.694;23.286;2023-02-28T08:42:32;61.57;;;33.53;;
69523;SDS011;56723;42.694;23.286;2023-02-28T08:44:59;54.63;;;31.70;;
69523;SDS011;56723;42.694;23.286;2023-02-28T08:47:26;61.53;;;31.40;;
69523;SDS011;56723;42.694;23.286;2023-02-28T08:49:53;61.43;;;33.57;;
69523;SDS011;56723;42.694;23.286;2023-02-28T08:52:20;62.63;;;34.43;;
69523;SDS011;56723;42.694;23.286;2023-02-28T08:54:47;64.40;;;33.57;;
69523;SDS011;56723;42.694;23.286;2023-02-28T08:57:14;68.20;;;33.90;;
69523;SDS011;56723;42.694;23.286;2023-02-28T08:59:41;75.37;;;35.10;;
69523;SDS011;56723;42.694;23.286;2023-02-28T09:02:09;83.93;;;42.83;;
69523;SDS011;56723;42.694;23.286;2023-02-28T09:32:10;70.30;;;39.13;;
69523;SDS011;56723;42.694;23.286;2023-02-28T09:34:37;75.87;;;41.57;;
69523;SDS011;56723;42.694;23.286;2023-02-28T09:37:04;69.87;;;36.07;;
69523;SDS011;56723;42.694;23.286;2023-02-28T09:39:31;64.57;;;31.53;;
69523;SDS011;56723;42.694;23.286;2023-02-28T09:41:58;63.63;;;33.80;;
69523;SDS011;56723;42.694;23.286;2023-02-28T09:44:27;61.90;;;32.57;;
69523;SDS011;56723;42.694;23.286;2023-02-28T09:47:00;60.77;;;32.93;;
69523;SDS011;56723;42.694;23.286;2023-02-28T09:49:34;60.77;;;36.07;;
69523;SDS011;56723;42.694;23.286;2023-02-28T09:52:06;58.77;;;35.07;;
69523;SDS011;56723;42.694;23.286;2023-02-28T09:54:38;58.63;;;31.80;;
69523;SDS011;56723;42.694;23.286;2023-02-28T10:02:12;57.67;;;31.87;;
69523;SDS011;56723;42.694;23.286;2023-02-28T10:04:55;61.80;;;32.07;;
69523;SDS011;56723;42.694;23.286;2023-02-28T10:10:40;59.80;;;31.40;;
69523;SDS011;56723;42.694;23.286;2023-02-28T10:13:30;52.77;;;28.33;;
69523;SDS011;56723;42.694;23.286;2023-02-28T10:16:08;59.70;;;34.43;;
69523;SDS011;56723;42.694;23.286;2023-02-28T10:18:42;51.67;;;31.00;;
69523;SDS011;56723;42.694;23.286;2023-02-28T10:21:17;46.57;;;28.03;;
69523;SDS011;56723;42.694;23.286;2023-02-28T10:23:46;50.87;;;27.67;;
69523;SDS011;56723;42.694;23.286;2023-02-28T10:26:17;45.28;;;25.48;;
69523;SDS011;56723;42.694;23.286;2023-02-28T10:31:14;46.90;;;25.05;;
69523;SDS011;56723;42.694;23.286;2023-02-28T10:33:44;38.25;;;19.20;;
69523;SDS011;56723;42.694;23.286;2023-02-28T10:36:14;31.75;;;17.92;;
69523;SDS011;56723;42.694;23.286;2023-02-28T10:38:43;28.33;;;15.93;;
69523;SDS011;56723;42.694;23.286;2023-02-28T10:43:42;31.42;;;14.90;;
69523;SDS011;56723;42.694;23.286;2023-02-28T10:46:15;29.95;;;13.40;;
69523;SDS011;56723;42.694;23.286;2023-02-28T10:49:03;26.27;;;13.57;;
69523;SDS011;56723;42.694;23.286;2023-02-28T10:51:38;33.20;;;14.48;;
69523;SDS011;56723;42.694;23.286;2023-02-28T10:54:16;29.35;;;12.55;;
69523;SDS011;56723;42.694;23.286;2023-02-28T10:57:04;25.77;;;13.23;;
69523;SDS011;56723;42.694;23.286;2023-02-28T10:59:51;21.70;;;11.52;;
69523;SDS011;56723;42.694;23.286;2023-02-28T11:02:29;27.67;;;13.90;;
69523;SDS011;56723;42.694;23.286;2023-02-28T11:05:02;22.25;;;11.65;;
69523;SDS011;56723;42.694;23.286;2023-02-28T11:10:37;39.08;;;19.10;;
69523;SDS011;56723;42.694;23.286;2023-02-28T11:13:05;22.33;;;11.13;;
69523;SDS011;56723;42.694;23.286;2023-02-28T11:15:33;22.10;;;11.60;;
69523;SDS011;56723;42.694;23.286;2023-02-28T11:18:05;25.50;;;11.32;;
69523;SDS011;56723;42.694;23.286;2023-02-28T11:20:48;23.90;;;11.98;;
69523;SDS011;56723;42.694;23.286;2023-02-28T11:23:20;19.65;;;11.98;;
69523;SDS011;56723;42.694;23.286;2023-02-28T11:25:51;20.77;;;10.68;;
69523;SDS011;56723;42.694;23.286;2023-02-28T11:28:31;23.83;;;9.73;;
69523;SDS011;56723;42.694;23.286;2023-02-28T11:36:15;26.50;;;12.23;;
69523;SDS011;56723;42.694;23.286;2023-02-28T11:38:47;22.38;;;12.52;;
69523;SDS011;56723;42.694;23.286;2023-02-28T11:44:32;26.30;;;10.60;;
69523;SDS011;56723;42.694;23.286;2023-02-28T11:52:30;22.52;;;11.32;;
69523;SDS011;56723;42.694;23.286;2023-02-28T12:04:11;23.92;;;12.13;;
69523;SDS011;56723;42.694;23.286;2023-02-28T12:09:23;37.58;;;17.85;;
69523;SDS011;56723;42.694;23.286;2023-02-28T12:12:06;36.00;;;18.50;;
69523;SDS011;56723;42.694;23.286;2023-02-28T12:28:17;46.72;;;21.73;;
69523;SDS011;56723;42.694;23.286;2023-02-28T12:30:55;66.25;;;29.50;;
69523;SDS011;56723;42.694;23.286;2023-02-28T12:33:28;68.00;;;28.67;;
69523;SDS011;56723;42.694;23.286;2023-02-28T12:36:03;95.25;;;38.63;;
69523;SDS011;56723;42.694;23.286;2023-02-28T12:38:41;59.83;;;26.73;;
69523;SDS011;56723;42.694;23.286;2023-02-28T12:41:13;49.70;;;21.10;;
69523;SDS011;56723;42.694;23.286;2023-02-28T12:43:44;24.77;;;11.32;;
69523;SDS011;56723;42.694;23.286;2023-02-28T12:46:20;183.85;;;68.95;;
69523;SDS011;56723;42.694;23.286;2023-02-28T12:49:16;52.85;;;24.25;;
69523;SDS011;56723;42.694;23.286;2023-02-28T12:51:57;31.42;;;14.20;;
69523;SDS011;56723;42.694;23.286;2023-02-28T12:57:06;19.90;;;10.18;;
69523;SDS011;56723;42.694;23.286;2023-02-28T13:10:54;20.35;;;10.38;;
69523;SDS011;56723;42.694;23.286;2023-02-28T13:13:21;23.88;;;9.30;;
69523;SDS011;56723;42.694;23.286;2023-02-28T13:18:38;22.73;;;10.45;;
69523;SDS011;56723;42.694;23.286;2023-02-28T13:21:10;21.05;;;9.20;;
69523;SDS011;56723;42.694;23.286;2023-02-28T13:24:01;21.10;;;9.50;;
69523;SDS011;56723;42.694;23.286;2023-02-28T13:28:59;20.30;;;9.30;;
69523;SDS011;56723;42.694;23.286;2023-02-28T13:31:28;21.38;;;8.30;;
69523;SDS011;56723;42.694;23.286;2023-02-28T13:36:29;22.17;;;10.40;;
69523;SDS011;56723;42.694;23.286;2023-02-28T13:43:02;22.58;;;10.60;;
69523;SDS011;56723;42.694;23.286;2023-02-28T13:58:48;17.05;;;8.75;;
69523;SDS011;56723;42.694;23.286;2023-02-28T14:01:51;21.50;;;9.45;;
69523;SDS011;56723;42.694;23.286;2023-02-28T14:07:26;21.48;;;9.30;;
69523;SDS011;56723;42.694;23.286;2023-02-28T14:10:03;17.80;;;8.30;;
69523;SDS011;56723;42.694;23.286;2023-02-28T14:18:22;18.00;;;8.82;;
69523;SDS011;56723;42.694;23.286;2023-02-28T14:38:04;16.77;;;9.07;;
69523;SDS011;56723;42.694;23.286;2023-02-28T14:40:33;23.88;;;10.07;;
69523;SDS011;56723;42.694;23.286;2023-02-28T14:43:05;20.90;;;9.75;;
69523;SDS011;56723;42.694;23.286;2023-02-28T14:45:48;23.10;;;9.43;;
69523;SDS011;56723;42.694;23.286;2023-02-28T14:48:17;18.60;;;10.45;;
69523;SDS011;56723;42.694;23.286;2023-02-28T14:50:51;24.08;;;10.82;;
69523;SDS011;56723;42.694;23.286;2023-02-28T14:53:21;21.98;;;9.48;;
69523;SDS011;56723;42.694;23.286;2023-02-28T14:55:51;22.35;;;9.50;;
69523;SDS011;56723;42.694;23.286;2023-02-28T14:58:27;20.48;;;8.88;;
69523;SDS011;56723;42.694;23.286;2023-02-28T15:00:59;21.50;;;10.45;;
69523;SDS011;56723;42.694;23.286;2023-02-28T15:06:19;16.70;;;9.20;;
69523;SDS011;56723;42.694;23.286;2023-02-28T15:08:45;22.83;;;9.38;;
69523;SDS011;56723;42.694;23.286;2023-02-28T15:11:13;20.73;;;10.38;;
69523;SDS011;56723;42.694;23.286;2023-02-28T15:13:46;17.83;;;9.30;;
69523;SDS011;56723;42.694;23.286;2023-02-28T15:16:17;25.80;;;9.70;;
69523;SDS011;56723;42.694;23.286;2023-02-28T15:18:57;21.05;;;8.75;;
69523;SDS011;56723;42.694;23.286;2023-02-28T15:21:28;18.65;;;9.98;;
69523;SDS011;56723;42.694;23.286;2023-02-28T15:24:06;21.95;;;9.90;;
69523;SDS011;56723;42.694;23.286;2023-02-28T15:26:41;30.17;;;10.45;;
69523;SDS011;56723;42.694;23.286;2023-02-28T15:29:13;19.10;;;9.88;;
69523;SDS011;56723;42.694;23.286;2023-02-28T15:31:44;16.70;;;7.97;;
69523;SDS011;56723;42.694;23.286;2023-02-28T15:34:33;22.10;;;8.45;;
69523;SDS011;56723;42.694;23.286;2023-02-28T15:43:15;25.88;;;11.38;;
69523;SDS011;56723;42.694;23.286;2023-02-28T15:48:59;22.02;;;10.30;;
69523;SDS011;56723;42.694;23.286;2023-02-28T15:51:25;20.83;;;9.95;;
69523;SDS011;56723;42.694;23.286;2023-02-28T15:54:40;17.02;;;8.77;;
69523;SDS011;56723;42.694;23.286;2023-02-28T15:56:55;16.48;;;8.38;;
69523;SDS011;56723;42.694;23.286;2023-02-28T15:59:25;17.25;;;8.07;;
69523;SDS011;56723;42.694;23.286;2023-02-28T16:04:54;21.38;;;9.90;;
69523;SDS011;56723;42.694;23.286;2023-02-28T16:07:25;22.73;;;11.07;;
69523;SDS011;56723;42.694;23.286;2023-02-28T16:09:53;19.83;;;10.97;;
69523;SDS011;56723;42.694;23.286;2023-02-28T16:12:22;23.52;;;11.35;;
69523;SDS011;56723;42.694;23.286;2023-02-28T16:14:52;17.77;;;10.97;;
69523;SDS011;56723;42.694;23.286;2023-02-28T16:17:26;22.73;;;12.83;;
69523;SDS011;56723;42.694;23.286;2023-02-28T16:19:55;25.20;;;16.27;;
69523;SDS011;56723;42.694;23.286;2023-02-28T16:22:22;21.13;;;13.80;;
69523;SDS011;56723;42.694;23.286;2023-02-28T16:24:49;20.30;;;13.97;;
69523;SDS011;56723;42.694;23.286;2023-02-28T16:29:43;18.13;;;11.03;;
69523;SDS011;56723;42.694;23.286;2023-02-28T16:32:12;16.97;;;10.07;;
69523;SDS011;56723;42.694;23.286;2023-02-28T16:34:41;19.20;;;11.47;;
69523;SDS011;56723;42.694;23.286;2023-02-28T16:37:11;13.38;;;9.18;;
69523;SDS011;56723;42.694;23.286;2023-02-28T16:39:40;12.47;;;8.83;;
69523;SDS011;56723;42.694;23.286;2023-02-28T16:42:16;16.30;;;10.43;;
69523;SDS011;56723;42.694;23.286;2023-02-28T16:44:49;18.07;;;9.90;;
69523;SDS011;56723;42.694;23.286;2023-02-28T16:47:17;19.70;;;10.23;;
69523;SDS011;56723;42.694;23.286;2023-02-28T16:49:44;18.17;;;10.23;;
69523;SDS011;56723;42.694;23.286;2023-02-28T16:52:13;18.52;;;9.50;;
69523;SDS011;56723;42.694;23.286;2023-02-28T16:54:41;14.37;;;8.80;;
69523;SDS011;56723;42.694;23.286;2023-02-28T16:57:17;14.40;;;8.10;;
69523;SDS011;56723;42.694;23.286;2023-02-28T16:59:48;15.90;;;8.10;;
69523;SDS011;56723;42.694;23.286;2023-02-28T17:02:19;14.80;;;8.37;;
69523;SDS011;56723;42.694;23.286;2023-02-28T17:04:47;13.57;;;8.03;;
69523;SDS011;56723;42.694;23.286;2023-02-28T17:07:14;17.13;;;8.60;;
69523;SDS011;56723;42.694;23.286;2023-02-28T17:09:43;13.88;;;8.00;;
69523;SDS011;56723;42.694;23.286;2023-02-28T17:12:12;14.98;;;8.38;;
69523;SDS011;56723;42.694;23.286;2023-02-28T17:14:39;15.30;;;7.77;;
69523;SDS011;56723;42.694;23.286;2023-02-28T17:17:06;15.50;;;7.70;;
69523;SDS011;56723;42.694;23.286;2023-02-28T17:19:34;16.80;;;8.87;;
69523;SDS011;56723;42.694;23.286;2023-02-28T17:22:02;16.17;;;8.43;;
69523;SDS011;56723;42.694;23.286;2023-02-28T17:24:29;11.37;;;6.83;;
69523;SDS011;56723;42.694;23.286;2023-02-28T17:26:57;12.93;;;7.20;;
69523;SDS011;56723;42.694;23.286;2023-02-28T17:29:24;12.97;;;7.23;;
69523;SDS011;56723;42.694;23.286;2023-02-28T17:31:51;14.40;;;7.27;;
69523;SDS011;56723;42.694;23.286;2023-02-28T17:34:18;13.57;;;6.07;;
69523;SDS011;56723;42.694;23.286;2023-02-28T17:36:46;8.83;;;5.37;;
69523;SDS011;56723;42.694;23.286;2023-02-28T17:39:18;9.27;;;4.50;;
69523;SDS011;56723;42.694;23.286;2023-02-28T17:41:53;7.70;;;4.63;;
69523;SDS011;56723;42.694;23.286;2023-02-28T17:44:22;8.43;;;5.00;;
69523;SDS011;56723;42.694;23.286;2023-02-28T17:46:50;10.32;;;4.82;;
69523;SDS011;56723;42.694;23.286;2023-02-28T17:49:18;10.73;;;6.03;;
69523;SDS011;56723;42.694;23.286;2023-02-28T17:51:46;9.10;;;4.83;;
69523;SDS011;56723;42.694;23.286;2023-02-28T17:54:14;8.00;;;4.43;;
69523;SDS011;56723;42.694;23.286;2023-02-28T17:56:43;10.02;;;5.43;;
69523;SDS011;56723;42.694;23.286;2023-02-28T17:59:10;13.73;;;7.87;;
69523;SDS011;56723;42.694;23.286;2023-02-28T18:01:38;10.90;;;5.83;;
69523;SDS011;56723;42.694;23.286;2023-02-28T18:04:06;10.30;;;5.17;;
69523;SDS011;56723;42.694;23.286;2023-02-28T18:06:37;12.03;;;6.00;;
69523;SDS011;56723;42.694;23.286;2023-02-28T18:09:14;12.93;;;8.90;;
69523;SDS011;56723;42.694;23.286;2023-02-28T18:11:42;8.87;;;5.30;;
69523;SDS011;56723;42.694;23.286;2023-02-28T18:14:14;8.93;;;4.67;;
69523;SDS011;56723;42.694;23.286;2023-02-28T18:16:43;8.10;;;4.97;;
69523;SDS011;56723;42.694;23.286;2023-02-28T18:19:11;8.57;;;4.97;;
69523;SDS011;56723;42.694;23.286;2023-02-28T18:21:43;7.43;;;4.23;;
69523;SDS011;56723;42.694;23.286;2023-02-28T18:24:11;9.18;;;5.28;;
69523;SDS011;56723;42.694;23.286;2023-02-28T18:26:39;5.93;;;4.03;;
69523;SDS011;56723;42.694;23.286;2023-02-28T18:29:07;7.80;;;4.50;;
69523;SDS011;56723;42.694;23.286;2023-02-28T18:31:41;6.23;;;3.50;;
69523;SDS011;56723;42.694;23.286;2023-02-28T18:34:08;7.60;;;5.17;;
69523;SDS011;56723;42.694;23.286;2023-02-28T18:36:35;8.00;;;4.73;;
69523;SDS011;56723;42.694;23.286;2023-02-28T18:39:02;10.30;;;5.77;;
69523;SDS011;56723;42.694;23.286;2023-02-28T18:41:29;8.47;;;4.47;;
69523;SDS011;56723;42.694;23.286;2023-02-28T18:43:56;7.23;;;4.73;;
69523;SDS011;56723;42.694;23.286;2023-02-28T18:46:25;7.82;;;5.55;;
69523;SDS011;56723;42.694;23.286;2023-02-28T18:48:51;8.10;;;4.80;;
69523;SDS011;56723;42.694;23.286;2023-02-28T18:51:20;6.77;;;4.63;;
69523;SDS011;56723;42.694;23.286;2023-02-28T18:53:50;7.53;;;4.17;;
69523;SDS011;56723;42.694;23.286;2023-02-28T18:56:18;6.40;;;4.27;;
69523;SDS011;56723;42.694;23.286;2023-02-28T18:58:46;8.43;;;4.70;;
69523;SDS011;56723;42.694;23.286;2023-02-28T19:01:17;10.97;;;4.63;;
69523;SDS011;56723;42.694;23.286;2023-02-28T19:03:47;5.77;;;3.80;;
69523;SDS011;56723;42.694;23.286;2023-02-28T19:06:15;8.97;;;5.37;;
69523;SDS011;56723;42.694;23.286;2023-02-28T19:08:42;7.73;;;5.23;;
69523;SDS011;56723;42.694;23.286;2023-02-28T19:11:10;7.50;;;5.50;;
69523;SDS011;56723;42.694;23.286;2023-02-28T19:13:39;10.80;;;6.83;;
69523;SDS011;56723;42.694;23.286;2023-02-28T19:16:06;11.40;;;6.47;;
69523;SDS011;56723;42.694;23.286;2023-02-28T19:18:34;8.93;;;5.88;;
69523;SDS011;56723;42.694;23.286;2023-02-28T19:21:02;9.93;;;6.83;;
69523;SDS011;56723;42.694;23.286;2023-02-28T19:23:32;10.90;;;6.63;;
69523;SDS011;56723;42.694;23.286;2023-02-28T19:25:59;12.37;;;6.80;;
69523;SDS011;56723;42.694;23.286;2023-02-28T19:28:29;10.23;;;6.17;;
69523;SDS011;56723;42.694;23.286;2023-02-28T19:30:56;10.93;;;6.53;;
69523;SDS011;56723;42.694;23.286;2023-02-28T19:33:23;11.13;;;6.80;;
69523;SDS011;56723;42.694;23.286;2023-02-28T19:35:50;9.87;;;6.57;;
69523;SDS011;56723;42.694;23.286;2023-02-28T19:38:17;10.60;;;7.50;;
69523;SDS011;56723;42.694;23.286;2023-02-28T19:40:43;9.23;;;7.23;;
69523;SDS011;56723;42.694;23.286;2023-02-28T19:43:11;11.80;;;7.37;;
69523;SDS011;56723;42.694;23.286;2023-02-28T19:45:37;11.27;;;7.50;;
69523;SDS011;56723;42.694;23.286;2023-02-28T19:48:04;9.87;;;6.77;;
69523;SDS011;56723;42.694;23.286;2023-02-28T19:50:31;10.47;;;6.27;;
69523;SDS011;56723;42.694;23.286;2023-02-28T19:52:58;11.07;;;7.20;;
69523;SDS011;56723;42.694;23.286;2023-02-28T19:55:26;9.27;;;6.63;;
69523;SDS011;56723;42.694;23.286;2023-02-28T19:57:53;8.17;;;6.13;;
69523;SDS011;56723;42.694;23.286;2023-02-28T20:00:20;9.90;;;6.97;;
69523;SDS011;56723;42.694;23.286;2023-02-28T20:02:47;9.43;;;6.33;;
69523;SDS011;56723;42.694;23.286;2023-02-28T20:05:14;8.83;;;6.23;;
69523;SDS011;56723;42.694;23.286;2023-02-28T20:07:41;16.30;;;9.63;;
69523;SDS011;56723;42.694;23.286;2023-02-28T20:10:08;12.67;;;7.97;;
69523;SDS011;56723;42.694;23.286;2023-02-28T20:12:35;11.47;;;6.70;;
69523;SDS011;56723;42.694;23.286;2023-02-28T20:15:02;11.10;;;7.03;;
69523;SDS011;56723;42.694;23.286;2023-02-28T20:17:30;9.30;;;6.47;;
69523;SDS011;56723;42.694;23.286;2023-02-28T20:19:56;9.97;;;6.80;;
69523;SDS011;56723;42.694;23.286;2023-02-28T20:22:23;11.57;;;6.73;;
69523;SDS011;56723;42.694;23.286;2023-02-28T20:24:50;13.57;;;8.23;;
69523;SDS011;56723;42.694;23.286;2023-02-28T20:27:19;11.33;;;7.77;;
69523;SDS011;56723;42.694;23.286;2023-02-28T20:29:46;10.77;;;7.37;;
69523;SDS011;56723;42.694;23.286;2023-02-28T20:32:13;14.10;;;9.33;;
69523;SDS011;56723;42.694;23.286;2023-02-28T20:34:40;12.93;;;8.73;;
69523;SDS011;56723;42.694;23.286;2023-02-28T20:37:07;16.63;;;9.73;;
69523;SDS011;56723;42.694;23.286;2023-02-28T20:39:34;14.67;;;9.23;;
69523;SDS011;56723;42.694;23.286;2023-02-28T20:42:01;14.77;;;9.77;;
69523;SDS011;56723;42.694;23.286;2023-02-28T20:44:28;13.90;;;8.33;;
69523;SDS011;56723;42.694;23.286;2023-02-28T20:46:55;19.27;;;11.90;;
69523;SDS011;56723;42.694;23.286;2023-02-28T20:49:22;14.20;;;9.63;;
69523;SDS011;56723;42.694;23.286;2023-02-28T20:51:49;13.83;;;9.77;;
69523;SDS011;56723;42.694;23.286;2023-02-28T20:54:16;17.53;;;11.57;;
69523;SDS011;56723;42.694;23.286;2023-02-28T20:56:42;16.90;;;9.93;;
69523;SDS011;56723;42.694;23.286;2023-02-28T20:59:10;15.10;;;9.47;;
69523;SDS011;56723;42.694;23.286;2023-02-28T21:01:38;12.67;;;8.93;;
69523;SDS011;56723;42.694;23.286;2023-02-28T21:04:06;13.83;;;10.20;;
69523;SDS011;56723;42.694;23.286;2023-02-28T21:06:34;14.17;;;9.87;;
69523;SDS011;56723;42.694;23.286;2023-02-28T21:09:06;17.07;;;10.93;;
69523;SDS011;56723;42.694;23.286;2023-02-28T21:11:35;14.05;;;9.63;;
69523;SDS011;56723;42.694;23.286;2023-02-28T21:14:04;13.82;;;8.48;;
69523;SDS011;56723;42.694;23.286;2023-02-28T21:16:33;11.97;;;8.60;;
69523;SDS011;56723;42.694;23.286;2023-02-28T21:19:03;12.67;;;8.30;;
69523;SDS011;56723;42.694;23.286;2023-02-28T21:21:31;13.60;;;8.80;;
69523;SDS011;56723;42.694;23.286;2023-02-28T21:24:04;14.50;;;8.57;;
69523;SDS011;56723;42.694;23.286;2023-02-28T21:26:32;13.20;;;7.83;;
69523;SDS011;56723;42.694;23.286;2023-02-28T21:28:59;13.73;;;8.07;;
69523;SDS011;56723;42.694;23.286;2023-02-28T21:31:29;14.48;;;8.80;;
69523;SDS011;56723;42.694;23.286;2023-02-28T21:36:27;9.57;;;6.03;;
69523;SDS011;56723;42.694;23.286;2023-02-28T21:38:59;10.73;;;5.83;;
69523;SDS011;56723;42.694;23.286;2023-02-28T21:41:38;9.07;;;5.37;;
69523;SDS011;56723;42.694;23.286;2023-02-28T21:44:07;11.07;;;7.40;;
69523;SDS011;56723;42.694;23.286;2023-02-28T21:46:37;10.93;;;6.10;;
69523;SDS011;56723;42.694;23.286;2023-02-28T21:49:04;14.17;;;8.30;;
69523;SDS011;56723;42.694;23.286;2023-02-28T21:51:31;8.83;;;6.20;;
69523;SDS011;56723;42.694;23.286;2023-02-28T21:53:59;9.67;;;5.03;;
69523;SDS011;56723;42.694;23.286;2023-02-28T21:56:28;11.60;;;7.23;;
69523;SDS011;56723;42.694;23.286;2023-02-28T21:58:56;9.10;;;6.73;;
69523;SDS011;56723;42.694;23.286;2023-02-28T22:01:28;10.27;;;7.30;;
69523;SDS011;56723;42.694;23.286;2023-02-28T22:04:07;12.13;;;7.70;;
69523;SDS011;56723;42.694;23.286;2023-02-28T22:06:36;11.00;;;7.07;;
69523;SDS011;56723;42.694;23.286;2023-02-28T22:09:05;12.48;;;7.20;;
69523;SDS011;56723;42.694;23.286;2023-02-28T22:11:34;11.65;;;7.68;;
69523;SDS011;56723;42.694;23.286;2023-02-28T22:14:03;9.40;;;7.20;;
69523;SDS011;56723;42.694;23.286;2023-02-28T22:16:31;11.30;;;7.63;;
69523;SDS011;56723;42.694;23.286;2023-02-28T22:19:16;11.03;;;6.50;;
69523;SDS011;56723;42.694;23.286;2023-02-28T22:21:43;13.60;;;7.40;;
69523;SDS011;56723;42.694;23.286;2023-02-28T22:24:11;11.07;;;7.50;;
69523;SDS011;56723;42.694;23.286;2023-02-28T22:26:38;10.87;;;7.33;;
69523;SDS011;56723;42.694;23.286;2023-02-28T22:29:05;11.80;;;8.17;;
69523;SDS011;56723;42.694;23.286;2023-02-28T22:31:33;11.07;;;7.43;;
69523;SDS011;56723;42.694;23.286;2023-02-28T22:34:02;11.85;;;7.68;;
69523;SDS011;56723;42.694;23.286;2023-02-28T22:36:31;13.63;;;8.30;;
69523;SDS011;56723;42.694;23.286;2023-02-28T22:38:59;13.60;;;8.00;;
69523;SDS011;56723;42.694;23.286;2023-02-28T22:41:26;10.90;;;6.93;;
69523;SDS011;56723;42.694;23.286;2023-02-28T22:43:55;12.53;;;7.20;;
69523;SDS011;56723;42.694;23.286;2023-02-28T22:46:27;10.77;;;6.60;;
69523;SDS011;56723;42.694;23.286;2023-02-28T22:48:59;12.27;;;7.45;;
69523;SDS011;56723;42.694;23.286;2023-02-28T22:51:27;11.13;;;6.17;;
69523;SDS011;56723;42.694;23.286;2023-02-28T22:53:56;9.38;;;6.00;;
69523;SDS011;56723;42.694;23.286;2023-02-28T22:56:24;9.03;;;5.37;;
69523;SDS011;56723;42.694;23.286;2023-02-28T22:58:55;7.20;;;4.40;;
69523;SDS011;56723;42.694;23.286;2023-02-28T23:01:24;6.22;;;4.35;;
69523;SDS011;56723;42.694;23.286;2023-02-28T23:03:53;6.97;;;4.63;;
69523;SDS011;56723;42.694;23.286;2023-02-28T23:06:22;11.67;;;8.60;;
